Time;durP1;ratioP1;P1;durP2;ratioP2;P2;SDS_P1;SDS_P2;PMS_P1;PMS_P2;Temp;Humidity;BMP_temperature;BMP_pressure;BME280_temperature;BME280_humidity;BME280_pressure;Samples;Min_cycle;Max_cycle;Signal;HPM_P1;HPM_P2
2022/02/13 00:01:02;;;;;;;5.63;3.43;;;2.40;99.60;;;;;;5053035;28;20220;-78
2022/02/13 00:03:30;;;;;;;5.87;2.83;;;2.40;99.70;;;;;;5048333;28;20229;-78
2022/02/13 00:05:57;;;;;;;6.43;3.30;;;2.30;99.70;;;;;;5052075;28;20204;-78
2022/02/13 00:08:24;;;;;;;6.97;3.50;;;2.30;99.80;;;;;;5051242;28;20229;-78
2022/02/13 00:10:53;;;;;;;7.90;3.60;;;2.30;99.80;;;;;;5053286;28;20204;-77
2022/02/13 00:13:20;;;;;;;7.97;3.33;;;2.30;99.90;;;;;;5045366;28;20745;-78
2022/02/13 00:15:47;;;;;;;9.03;4.10;;;2.20;99.90;;;;;;5051347;28;20673;-78
2022/02/13 00:18:15;;;;;;;11.33;4.03;;;2.30;99.90;;;;;;5054864;28;20200;-77
2022/02/13 00:20:47;;;;;;;11.40;4.00;;;2.10;99.90;;;;;;5053567;28;20197;-78
2022/02/13 00:23:14;;;;;;;7.27;3.97;;;2.70;99.90;;;;;;5050304;28;20754;-77
2022/02/13 00:25:44;;;;;;;14.23;4.87;;;2.10;99.90;;;;;;5056178;28;20341;-77
2022/02/13 00:28:13;;;;;;;15.57;4.93;;;2.10;99.90;;;;;;5054297;28;20202;-78
2022/02/13 00:30:46;;;;;;;10.63;4.30;;;2.10;99.90;;;;;;5062649;28;20231;-78
2022/02/13 00:33:13;;;;;;;13.27;5.77;;;2.10;99.90;;;;;;5055179;28;20405;-78
2022/02/13 00:35:42;;;;;;;13.87;5.30;;;2.30;99.90;;;;;;5057105;28;20319;-78
2022/02/13 00:38:09;;;;;;;10.80;4.73;;;2.10;99.90;;;;;;5050180;28;20744;-79
2022/02/13 00:40:37;;;;;;;14.73;5.87;;;2.00;99.90;;;;;;5050894;28;20197;-79
2022/02/13 00:43:06;;;;;;;16.03;5.03;;;2.30;99.90;;;;;;5054367;28;20653;-78
2022/02/13 00:45:35;;;;;;;8.10;4.43;;;2.20;99.90;;;;;;5050669;28;20229;-77
2022/02/13 00:48:02;;;;;;;14.70;4.80;;;2.00;99.90;;;;;;5049463;28;20186;-78
2022/02/13 00:50:29;;;;;;;9.53;4.37;;;2.30;99.90;;;;;;5048958;28;20209;-77
2022/02/13 00:52:56;;;;;;;9.67;4.50;;;2.00;99.90;;;;;;5050633;28;20197;-78
2022/02/13 00:55:23;;;;;;;7.20;3.87;;;2.00;99.90;;;;;;5051123;28;20194;-77
2022/02/13 00:57:50;;;;;;;9.97;4.37;;;1.90;99.90;;;;;;5049022;28;20800;-78
2022/02/13 01:00:18;;;;;;;12.63;4.60;;;1.90;99.90;;;;;;5051579;28;20197;-78
2022/02/13 01:02:46;;;;;;;12.70;4.77;;;1.90;99.90;;;;;;5049089;28;20662;-78
2022/02/13 01:05:13;;;;;;;12.00;5.10;;;1.90;99.90;;;;;;5048693;28;20205;-78
2022/02/13 01:07:40;;;;;;;10.43;4.20;;;1.80;99.90;;;;;;5052150;28;20681;-78
2022/02/13 01:10:09;;;;;;;10.20;4.10;;;1.80;99.90;;;;;;5053213;28;20657;-78
2022/02/13 01:12:36;;;;;;;9.10;4.00;;;1.80;99.90;;;;;;5052405;28;20209;-79
2022/02/13 01:15:04;;;;;;;13.57;4.67;;;1.80;99.90;;;;;;5049584;28;20200;-78
2022/02/13 01:17:31;;;;;;;12.53;4.60;;;1.70;99.90;;;;;;5047396;28;20209;-78
2022/02/13 01:20:00;;;;;;;10.50;4.67;;;1.70;99.90;;;;;;5055304;28;20201;-79
2022/02/13 01:22:27;;;;;;;11.67;4.17;;;1.80;99.90;;;;;;5049721;28;20198;-79
2022/02/13 01:24:54;;;;;;;11.47;4.10;;;1.80;99.90;;;;;;5051463;28;20609;-78
2022/02/13 01:27:21;;;;;;;11.33;4.27;;;1.70;99.90;;;;;;5045825;28;20205;-78
2022/02/13 01:29:48;;;;;;;12.33;4.73;;;1.70;99.90;;;;;;5057405;28;20276;-78
2022/02/13 01:32:15;;;;;;;9.90;4.37;;;1.70;99.90;;;;;;5052838;28;20263;-78
2022/02/13 01:34:42;;;;;;;10.80;3.77;;;1.70;99.90;;;;;;5048310;28;20202;-79
2022/02/13 01:37:11;;;;;;;9.80;4.40;;;1.70;99.90;;;;;;5057397;28;20220;-78
2022/02/13 01:39:38;;;;;;;13.27;4.70;;;1.80;99.90;;;;;;5049431;28;20190;-78
2022/02/13 01:42:09;;;;;;;13.00;5.43;;;2.20;99.90;;;;;;5047886;28;20608;-79
2022/02/13 01:44:36;;;;;;;13.43;5.43;;;1.80;99.90;;;;;;5048234;28;20210;-78
2022/02/13 01:47:04;;;;;;;14.77;5.47;;;1.80;99.90;;;;;;5049075;28;20548;-78
2022/02/13 01:49:32;;;;;;;17.80;5.93;;;1.80;99.90;;;;;;5049917;28;20561;-79
2022/02/13 01:52:01;;;;;;;15.10;5.97;;;1.80;99.90;;;;;;5053392;28;20653;-78
2022/02/13 01:54:32;;;;;;;13.43;5.43;;;1.80;99.90;;;;;;5055968;28;20271;-79
2022/02/13 01:57:00;;;;;;;10.87;5.40;;;1.80;99.90;;;;;;5050693;28;20241;-78
2022/02/13 01:59:27;;;;;;;8.13;4.50;;;1.80;99.90;;;;;;5054325;28;20209;-78
2022/02/13 02:01:55;;;;;;;14.77;4.70;;;1.80;99.90;;;;;;5054508;28;20618;-79
2022/02/13 02:04:23;;;;;;;13.57;5.67;;;1.80;99.90;;;;;;5058491;28;20705;-79
2022/02/13 02:06:50;;;;;;;16.27;6.20;;;1.80;99.90;;;;;;5054303;28;20297;-79
2022/02/13 02:09:18;;;;;;;11.90;4.90;;;1.80;99.90;;;;;;5057997;28;20300;-79
2022/02/13 02:11:46;;;;;;;20.07;6.80;;;1.80;99.90;;;;;;5055132;28;20220;-78
2022/02/13 02:14:13;;;;;;;14.30;5.77;;;1.80;99.90;;;;;;5047672;28;20673;-79
2022/02/13 02:16:40;;;;;;;12.87;5.10;;;1.90;99.90;;;;;;5047491;28;20676;-79
2022/02/13 02:19:10;;;;;;;9.07;4.67;;;1.90;99.90;;;;;;5061046;28;20205;-79
2022/02/13 02:21:38;;;;;;;11.27;4.63;;;1.90;99.90;;;;;;5056109;28;20583;-78
2022/02/13 02:24:12;;;;;;;11.30;4.97;;;2.20;99.90;;;;;;5051234;28;20562;-79
2022/02/13 02:26:39;;;;;;;11.67;4.30;;;1.80;99.90;;;;;;5061910;28;20192;-78
2022/02/13 02:29:07;;;;;;;7.73;3.70;;;1.80;99.90;;;;;;5063665;28;20729;-79
2022/02/13 02:31:35;;;;;;;7.90;3.93;;;1.80;99.90;;;;;;5061363;28;20320;-78
2022/02/13 02:34:02;;;;;;;7.43;3.73;;;2.40;99.90;;;;;;5062401;28;20197;-78
2022/02/13 02:36:29;;;;;;;10.47;4.43;;;1.80;99.90;;;;;;5055053;28;20207;-79
2022/02/13 02:38:56;;;;;;;9.53;3.97;;;1.80;99.90;;;;;;5065030;28;20201;-78
2022/02/13 02:41:27;;;;;;;9.13;3.93;;;1.80;99.90;;;;;;5051219;28;20202;-78
2022/02/13 02:43:58;;;;;;;8.07;3.93;;;1.90;99.90;;;;;;5039959;28;20290;-79
2022/02/13 02:46:25;;;;;;;12.90;4.60;;;1.90;99.90;;;;;;5050957;28;20213;-79
2022/02/13 02:48:53;;;;;;;10.37;4.83;;;1.90;99.90;;;;;;5051664;28;20255;-78
2022/02/13 02:51:20;;;;;;;7.93;4.10;;;1.90;99.90;;;;;;5050633;28;20197;-78
2022/02/13 02:53:47;;;;;;;8.13;3.97;;;1.90;99.90;;;;;;5052783;28;20237;-78
2022/02/13 02:56:14;;;;;;;7.73;4.40;;;1.80;99.90;;;;;;5053801;28;20206;-78
2022/02/13 02:58:42;;;;;;;8.77;4.20;;;1.80;99.90;;;;;;5050937;28;20198;-77
2022/02/13 03:01:10;;;;;;;8.47;4.10;;;1.80;99.90;;;;;;5052190;28;20561;-78
2022/02/13 03:03:37;;;;;;;8.97;4.10;;;1.90;99.90;;;;;;5054012;28;20543;-78
2022/02/13 03:06:04;;;;;;;10.00;3.67;;;1.80;99.90;;;;;;5052122;28;20209;-79
2022/02/13 03:08:31;;;;;;;8.50;3.83;;;1.90;99.90;;;;;;5051519;28;20225;-79
2022/02/13 03:11:01;;;;;;;9.33;4.70;;;1.80;99.90;;;;;;5054714;28;20300;-79
2022/02/13 03:13:29;;;;;;;10.33;4.90;;;1.80;99.90;;;;;;5053522;28;20266;-79
2022/02/13 03:15:57;;;;;;;11.53;4.27;;;1.80;99.90;;;;;;5051875;28;20566;-79
2022/02/13 03:18:25;;;;;;;10.90;4.70;;;1.80;99.90;;;;;;5056599;28;20201;-79
2022/02/13 03:20:52;;;;;;;11.50;5.43;;;1.80;99.90;;;;;;5054422;28;20198;-79
2022/02/13 03:23:19;;;;;;;11.67;4.83;;;1.80;99.90;;;;;;5057156;28;20198;-78
2022/02/13 03:25:47;;;;;;;9.57;4.40;;;1.80;99.90;;;;;;5049793;28;20305;-79
2022/02/13 03:28:14;;;;;;;11.03;4.23;;;1.90;99.90;;;;;;5059154;28;20197;-79
2022/02/13 03:30:41;;;;;;;15.37;5.40;;;1.90;99.90;;;;;;5055398;28;20796;-80
2022/02/13 03:33:10;;;;;;;14.50;5.40;;;1.90;99.90;;;;;;5048710;28;20550;-78
2022/02/13 03:35:37;;;;;;;18.73;6.77;;;1.90;99.90;;;;;;5083569;28;20198;-79
2022/02/13 03:38:06;;;;;;;18.70;6.80;;;1.80;99.90;;;;;;5056804;28;20220;-79
2022/02/13 03:40:33;;;;;;;15.53;6.73;;;1.80;99.90;;;;;;5051208;28;20202;-79
2022/02/13 03:43:03;;;;;;;15.60;5.73;;;1.80;99.90;;;;;;5047281;28;20197;-78
2022/02/13 03:45:30;;;;;;;20.23;7.03;;;1.80;99.90;;;;;;5051500;28;20559;-79
2022/02/13 03:47:57;;;;;;;16.20;7.17;;;1.80;99.90;;;;;;5049425;28;20205;-78
2022/02/13 03:50:25;;;;;;;12.73;5.77;;;1.80;99.90;;;;;;5051350;28;20225;-78
2022/02/13 03:52:52;;;;;;;11.90;5.37;;;1.80;99.90;;;;;;5049451;28;20677;-79
2022/02/13 03:55:19;;;;;;;19.17;7.67;;;1.80;99.90;;;;;;5050735;28;20271;-79
2022/02/13 03:57:46;;;;;;;16.80;6.80;;;1.80;99.90;;;;;;5053768;28;20226;-79
2022/02/13 04:00:16;;;;;;;15.63;6.10;;;1.80;99.90;;;;;;5052738;28;20202;-78
2022/02/13 04:02:43;;;;;;;17.00;6.13;;;1.70;99.90;;;;;;5053244;28;20212;-79
2022/02/13 04:05:11;;;;;;;12.67;5.33;;;1.80;99.90;;;;;;5053496;28;20236;-79
2022/02/13 04:07:40;;;;;;;11.37;5.47;;;1.70;99.90;;;;;;5079286;28;20630;-80
2022/02/13 04:10:09;;;;;;;13.60;5.37;;;1.70;99.90;;;;;;5050805;28;20197;-80
2022/02/13 04:12:36;;;;;;;13.23;5.63;;;1.60;99.90;;;;;;5051375;28;20277;-79
2022/02/13 04:15:03;;;;;;;11.80;5.47;;;1.60;99.90;;;;;;5050123;28;20228;-79
2022/02/13 04:17:30;;;;;;;15.57;5.07;;;1.50;99.90;;;;;;5049954;28;20198;-78
2022/02/13 04:19:57;;;;;;;11.77;5.40;;;1.50;99.90;;;;;;5051704;28;20229;-79
2022/02/13 04:22:25;;;;;;;15.97;6.07;;;1.50;99.90;;;;;;5048407;28;20201;-78
2022/02/13 04:24:53;;;;;;;9.83;4.87;;;1.50;99.90;;;;;;5052699;28;20248;-79
2022/02/13 04:27:20;;;;;;;12.33;5.50;;;1.30;99.90;;;;;;5051900;28;20646;-79
2022/02/13 04:29:47;;;;;;;12.37;5.93;;;1.40;99.90;;;;;;5052443;28;20605;-78
2022/02/13 04:32:15;;;;;;;14.37;5.67;;;1.40;99.90;;;;;;5050462;28;20193;-79
2022/02/13 04:34:45;;;;;;;14.33;6.00;;;1.40;99.90;;;;;;5051450;28;20209;-79
2022/02/13 04:37:13;;;;;;;16.07;6.53;;;1.30;99.90;;;;;;5051175;28;20201;-79
2022/02/13 04:39:40;;;;;;;17.87;7.27;;;1.30;99.90;;;;;;5051253;28;20201;-79
2022/02/13 04:42:09;;;;;;;14.73;6.57;;;1.30;99.90;;;;;;5050435;28;20283;-79
2022/02/13 04:44:36;;;;;;;11.67;5.90;;;1.20;99.90;;;;;;5049266;28;20213;-79
2022/02/13 04:47:04;;;;;;;10.37;5.23;;;1.20;99.90;;;;;;5049587;28;20239;-79
2022/02/13 04:49:31;;;;;;;13.13;6.07;;;1.20;99.90;;;;;;5048370;28;21208;-79
2022/02/13 04:51:58;;;;;;;10.63;5.57;;;1.20;99.90;;;;;;5048782;28;20370;-78
2022/02/13 04:54:25;;;;;;;14.07;5.73;;;1.40;99.90;;;;;;5054466;28;20537;-78
2022/02/13 04:56:52;;;;;;;13.80;6.27;;;1.20;99.90;;;;;;5052265;28;20201;-78
2022/02/13 04:59:21;;;;;;;14.13;5.53;;;1.10;99.90;;;;;;5049330;28;20205;-78
2022/02/13 05:01:48;;;;;;;14.23;6.53;;;1.10;99.90;;;;;;5049459;28;20720;-79
2022/02/13 05:04:16;;;;;;;12.70;5.20;;;1.10;99.90;;;;;;5049472;28;20249;-79
2022/02/13 05:06:43;;;;;;;17.83;7.00;;;1.10;99.90;;;;;;5072406;28;20263;-79
2022/02/13 05:09:10;;;;;;;10.90;5.40;;;2.00;99.90;;;;;;5055278;28;20204;-78
2022/02/13 05:11:37;;;;;;;13.60;6.50;;;1.20;99.90;;;;;;5055273;28;20205;-79
2022/02/13 05:14:05;;;;;;;15.90;7.07;;;1.10;99.90;;;;;;5049462;28;20201;-77
2022/02/13 05:16:33;;;;;;;12.40;6.30;;;1.10;99.90;;;;;;5043774;28;20237;-78
2022/02/13 05:19:00;;;;;;;16.40;7.13;;;1.30;99.90;;;;;;5041948;28;20568;-79
2022/02/13 05:21:27;;;;;;;15.50;6.67;;;1.10;99.90;;;;;;5048221;28;20208;-79
2022/02/13 05:23:55;;;;;;;18.07;7.30;;;1.10;99.90;;;;;;5064486;28;20197;-79
2022/02/13 05:26:22;;;;;;;18.70;7.23;;;1.20;99.90;;;;;;5048000;28;20220;-79
2022/02/13 05:28:49;;;;;;;20.80;7.40;;;1.10;99.90;;;;;;5060805;28;20210;-79
2022/02/13 05:31:17;;;;;;;18.17;7.93;;;1.10;99.90;;;;;;5054608;28;20245;-80
2022/02/13 05:33:46;;;;;;;15.23;7.13;;;1.10;99.90;;;;;;5042438;28;20209;-79
2022/02/13 05:36:13;;;;;;;13.90;6.97;;;1.10;99.90;;;;;;5052446;28;20206;-79
2022/02/13 05:38:40;;;;;;;17.10;7.60;;;1.10;99.90;;;;;;5085813;28;20252;-79
2022/02/13 05:41:07;;;;;;;15.90;6.90;;;1.10;99.90;;;;;;5085216;28;20665;-79
2022/02/13 05:43:34;;;;;;;15.73;6.13;;;1.10;99.90;;;;;;5052066;28;20197;-78
2022/02/13 05:46:01;;;;;;;19.57;7.80;;;1.10;99.90;;;;;;5085640;28;20221;-78
2022/02/13 05:48:30;;;;;;;15.57;7.20;;;1.10;99.90;;;;;;5052258;28;20247;-79
2022/02/13 05:50:59;;;;;;;19.13;7.70;;;1.10;99.90;;;;;;5053591;28;20289;-79
2022/02/13 05:53:26;;;;;;;24.07;9.10;;;1.20;99.90;;;;;;5051784;28;20680;-79
2022/02/13 05:55:53;;;;;;;23.83;9.77;;;1.20;99.90;;;;;;5052850;28;20506;-79
2022/02/13 05:58:20;;;;;;;22.80;9.77;;;1.30;99.90;;;;;;5054514;28;20233;-80
2022/02/13 06:00:47;;;;;;;19.93;7.83;;;1.20;99.90;;;;;;5051677;28;20244;-78
2022/02/13 06:03:14;;;;;;;18.13;7.90;;;1.20;99.90;;;;;;5050587;28;20305;-79
2022/02/13 06:05:41;;;;;;;17.17;7.57;;;1.50;99.90;;;;;;5052802;28;20582;-78
2022/02/13 06:08:10;;;;;;;20.30;8.47;;;1.10;99.90;;;;;;5056013;28;20205;-79
2022/02/13 06:10:38;;;;;;;16.57;7.43;;;1.20;99.90;;;;;;5052544;28;20198;-79
2022/02/13 06:13:06;;;;;;;14.97;7.27;;;1.20;99.90;;;;;;5054646;28;20225;-78
2022/02/13 06:15:33;;;;;;;18.03;7.63;;;1.20;99.90;;;;;;5055498;28;20243;-78
2022/02/13 06:18:00;;;;;;;17.77;7.40;;;1.10;99.90;;;;;;5051564;28;20205;-79
2022/02/13 06:20:27;;;;;;;19.40;7.97;;;1.20;99.90;;;;;;5052628;28;20225;-79
2022/02/13 06:22:54;;;;;;;17.73;7.93;;;1.20;99.90;;;;;;5043206;28;20201;-79
2022/02/13 06:25:23;;;;;;;16.63;7.57;;;2.10;99.90;;;;;;5055360;28;20225;-79
2022/02/13 06:27:50;;;;;;;15.93;6.80;;;1.30;99.90;;;;;;5055710;28;20201;-79
2022/02/13 06:30:17;;;;;;;24.20;9.03;;;1.20;99.90;;;;;;5064026;28;20298;-78
2022/02/13 06:32:44;;;;;;;14.27;7.37;;;1.20;99.90;;;;;;5057307;28;20580;-80
2022/02/13 06:35:12;;;;;;;25.27;11.00;;;1.20;99.90;;;;;;5062632;28;20193;-80
2022/02/13 06:37:39;;;;;;;24.17;10.30;;;1.10;99.90;;;;;;5056787;28;20580;-79
2022/02/13 06:40:07;;;;;;;25.40;11.03;;;1.10;99.90;;;;;;5064404;28;20201;-78
2022/02/13 06:42:36;;;;;;;18.93;8.90;;;1.10;99.90;;;;;;5058692;28;20289;-79
2022/02/13 06:45:03;;;;;;;25.03;10.97;;;1.10;99.90;;;;;;5051601;28;20639;-79
2022/02/13 06:47:30;;;;;;;29.27;12.30;;;1.10;99.90;;;;;;5051900;28;20202;-79
2022/02/13 06:49:57;;;;;;;20.97;9.93;;;1.10;99.90;;;;;;5051491;28;20526;-79
2022/02/13 06:52:24;;;;;;;26.60;10.67;;;1.10;99.90;;;;;;5055204;28;20201;-79
2022/02/13 06:54:51;;;;;;;24.50;11.13;;;1.10;99.90;;;;;;5049810;28;20199;-79
2022/02/13 06:57:18;;;;;;;26.03;10.73;;;1.10;99.90;;;;;;5048881;28;20229;-79
2022/02/13 06:59:47;;;;;;;27.17;10.63;;;1.10;99.90;;;;;;5050543;28;20259;-79
2022/02/13 07:02:14;;;;;;;26.63;10.00;;;1.20;99.90;;;;;;5050914;28;20217;-79
2022/02/13 07:04:41;;;;;;;26.27;10.97;;;1.20;99.90;;;;;;5056296;28;20202;-81
2022/02/13 07:07:09;;;;;;;25.30;10.37;;;1.30;99.90;;;;;;5052369;28;20194;-79
2022/02/13 07:09:36;;;;;;;24.47;11.63;;;1.30;99.90;;;;;;5058360;28;20664;-80
2022/02/13 07:12:09;;;;;;;23.90;10.70;;;1.30;99.90;;;;;;5060242;28;20320;-80
2022/02/13 07:14:36;;;;;;;27.00;11.77;;;1.30;99.90;;;;;;5059399;28;20206;-79
2022/02/13 07:17:05;;;;;;;30.10;12.70;;;1.30;99.90;;;;;;5062219;28;20189;-80
2022/02/13 07:19:32;;;;;;;28.77;10.77;;;1.30;99.90;;;;;;5061718;28;20247;-80
2022/02/13 07:22:00;;;;;;;27.60;11.30;;;1.30;99.90;;;;;;5062000;28;20707;-80
2022/02/13 07:24:27;;;;;;;26.87;10.67;;;1.40;99.90;;;;;;5063799;28;20197;-80
2022/02/13 07:26:54;;;;;;;27.20;10.57;;;1.50;99.90;;;;;;5049280;28;20220;-80
2022/02/13 07:29:21;;;;;;;33.53;12.97;;;1.50;99.90;;;;;;5061800;28;20204;-79
2022/02/13 07:31:48;;;;;;;31.23;12.00;;;1.50;99.90;;;;;;5062682;28;20823;-79
2022/02/13 07:34:18;;;;;;;24.40;10.80;;;1.50;99.90;;;;;;5054505;28;20206;-79
2022/02/13 07:36:48;;;;;;;34.83;14.27;;;1.60;99.90;;;;;;5058818;28;20293;-79
2022/02/13 07:39:15;;;;;;;31.13;14.30;;;1.60;99.90;;;;;;5050724;28;20672;-79
2022/02/13 07:41:43;;;;;;;36.47;13.93;;;1.60;99.90;;;;;;5070768;28;20584;-78
2022/02/13 07:44:10;;;;;;;30.17;11.97;;;1.60;99.90;;;;;;5050694;28;20205;-80
2022/02/13 07:46:37;;;;;;;32.53;12.90;;;1.60;99.90;;;;;;5037573;28;20244;-79
2022/02/13 07:49:06;;;;;;;31.60;12.10;;;1.60;99.90;;;;;;5048868;28;20197;-79
2022/02/13 07:51:36;;;;;;;27.17;11.50;;;1.70;99.90;;;;;;5050781;28;20229;-79
2022/02/13 07:54:03;;;;;;;26.77;12.33;;;1.80;99.90;;;;;;5052277;28;20255;-79
2022/02/13 07:56:30;;;;;;;34.60;13.73;;;1.80;99.90;;;;;;5051913;28;20657;-78
2022/02/13 07:58:57;;;;;;;33.27;13.23;;;1.80;99.90;;;;;;5053532;28;20201;-79
2022/02/13 08:01:25;;;;;;;29.83;12.30;;;1.90;99.90;;;;;;5048708;28;20569;-79
2022/02/13 08:03:52;;;;;;;31.13;13.17;;;1.90;99.90;;;;;;5054239;28;20257;-79
2022/02/13 08:06:19;;;;;;;27.30;12.30;;;1.90;99.90;;;;;;5055719;28;20210;-79
2022/02/13 08:08:48;;;;;;;27.23;12.03;;;2.30;99.90;;;;;;5053763;28;20252;-79
2022/02/13 08:11:16;;;;;;;30.27;11.83;;;2.40;99.90;;;;;;5053888;28;20252;-79
2022/02/13 08:13:44;;;;;;;25.60;10.47;;;2.10;99.90;;;;;;5055867;28;20204;-79
2022/02/13 08:16:11;;;;;;;32.37;12.30;;;2.70;99.90;;;;;;5049666;28;20336;-80
2022/02/13 08:18:41;;;;;;;31.27;12.90;;;2.30;99.90;;;;;;5057296;28;20202;-79
2022/02/13 08:21:09;;;;;;;28.97;11.57;;;2.40;99.90;;;;;;5056744;28;20225;-79
2022/02/13 08:23:37;;;;;;;29.83;13.03;;;2.50;99.90;;;;;;5067621;28;20257;-77
2022/02/13 08:26:06;;;;;;;30.07;13.03;;;2.60;99.90;;;;;;5058735;28;20213;-77
2022/02/13 08:28:34;;;;;;;27.33;11.30;;;2.60;99.90;;;;;;5048102;28;20202;-78
2022/02/13 08:31:02;;;;;;;25.33;11.07;;;2.60;99.90;;;;;;5051878;28;20221;-78
2022/02/13 08:33:29;;;;;;;29.40;13.37;;;2.60;99.90;;;;;;5057632;28;20200;-78
2022/02/13 08:35:57;;;;;;;34.37;13.83;;;2.70;99.90;;;;;;5070224;28;20611;-79
2022/02/13 08:38:25;;;;;;;29.17;12.53;;;2.70;99.90;;;;;;5054816;28;20775;-78
2022/02/13 08:40:53;;;;;;;25.70;11.87;;;2.70;99.90;;;;;;5054661;28;20213;-78
2022/02/13 08:43:22;;;;;;;24.20;11.73;;;2.70;99.90;;;;;;5037147;28;20673;-79
2022/02/13 08:45:52;;;;;;;26.83;11.50;;;2.70;99.90;;;;;;5051033;28;20275;-79
2022/02/13 08:48:21;;;;;;;27.00;11.20;;;2.80;99.90;;;;;;5049118;28;20197;-78
2022/02/13 08:50:48;;;;;;;31.37;11.93;;;2.80;99.90;;;;;;5050631;28;20251;-77
2022/02/13 08:53:18;;;;;;;26.50;12.57;;;2.80;99.90;;;;;;5051174;28;20240;-78
2022/02/13 08:55:45;;;;;;;30.93;13.03;;;2.90;99.90;;;;;;5049524;28;20196;-78
2022/02/13 08:58:12;;;;;;;29.20;11.87;;;2.90;99.90;;;;;;5048942;28;20216;-78
2022/02/13 09:00:41;;;;;;;30.80;13.07;;;2.90;99.90;;;;;;5054866;28;20216;-79
2022/02/13 09:03:08;;;;;;;27.30;12.23;;;3.20;99.90;;;;;;5045832;28;20213;-79
2022/02/13 09:05:35;;;;;;;31.87;12.53;;;3.00;99.90;;;;;;5056213;28;20273;-78
2022/02/13 09:08:02;;;;;;;30.87;13.33;;;3.50;99.90;;;;;;5042503;28;20212;-78
2022/02/13 09:10:29;;;;;;;25.47;11.27;;;3.30;99.90;;;;;;5053062;28;20208;-78
2022/02/13 09:12:58;;;;;;;26.90;11.43;;;3.30;99.90;;;;;;5047962;28;20993;-78
2022/02/13 09:15:28;;;;;;;29.00;10.90;;;3.40;99.90;;;;;;5052095;28;20210;-78
2022/02/13 09:17:57;;;;;;;31.17;12.63;;;3.50;99.90;;;;;;5046376;28;20211;-78
2022/02/13 09:20:24;;;;;;;26.73;11.53;;;3.60;99.90;;;;;;5057944;28;20232;-79
2022/02/13 09:22:52;;;;;;;30.27;11.80;;;3.70;99.90;;;;;;5062846;28;20201;-78
2022/02/13 09:25:19;;;;;;;29.43;13.17;;;3.70;99.90;;;;;;5060864;28;20198;-78
2022/02/13 09:27:46;;;;;;;27.27;11.30;;;3.80;99.90;;;;;;5052089;28;20742;-78
2022/02/13 09:30:14;;;;;;;25.63;11.00;;;3.80;99.90;;;;;;5045216;28;20222;-78
2022/02/13 09:32:41;;;;;;;27.10;10.87;;;3.80;99.90;;;;;;5052588;28;20252;-78
2022/02/13 09:35:11;;;;;;;25.60;10.63;;;3.90;99.90;;;;;;5063671;28;20202;-78
2022/02/13 09:37:38;;;;;;;18.70;9.50;;;4.20;99.90;;;;;;5063651;28;20621;-78
2022/02/13 09:40:08;;;;;;;26.03;10.57;;;4.00;99.90;;;;;;5043397;28;20284;-79
2022/02/13 09:42:37;;;;;;;24.23;10.83;;;4.10;99.90;;;;;;5064436;28;20207;-78
2022/02/13 09:45:05;;;;;;;19.47;8.80;;;4.20;99.90;;;;;;5044755;28;20193;-79
2022/02/13 09:47:32;;;;;;;20.30;8.57;;;4.30;99.90;;;;;;5053505;28;20604;-79
2022/02/13 09:49:59;;;;;;;22.23;9.67;;;4.40;99.90;;;;;;5056912;28;20198;-78
2022/02/13 09:52:27;;;;;;;24.47;10.43;;;4.50;99.90;;;;;;5054522;28;20212;-79
2022/02/13 09:54:54;;;;;;;20.17;8.23;;;4.60;99.60;;;;;;5056647;28;20194;-79
2022/02/13 10:00:07;;;;;;;22.70;8.93;;;4.80;99.20;;;;;;5051667;28;20615;-78
2022/02/13 10:02:42;;;;;;;18.97;8.00;;;4.90;98.70;;;;;;5051949;28;20202;-79
2022/02/13 10:05:11;;;;;;;18.10;8.50;;;5.00;98.40;;;;;;5049283;28;20604;-79
2022/02/13 10:07:40;;;;;;;18.57;8.57;;;5.10;98.30;;;;;;5058495;28;20221;-79
2022/02/13 10:10:09;;;;;;;17.57;8.77;;;5.30;97.90;;;;;;5060104;28;20193;-79
2022/02/13 10:12:42;;;;;;;28.00;9.90;;;5.40;97.80;;;;;;5057356;28;20194;-79
2022/02/13 10:15:27;;;;;;;22.37;9.73;;;5.50;96.40;;;;;;5049164;28;20280;-79
2022/02/13 10:18:03;;;;;;;18.93;8.90;;;5.60;95.90;;;;;;5053178;28;20201;-80
2022/02/13 10:20:31;;;;;;;17.97;8.20;;;5.60;95.70;;;;;;5052067;28;20259;-79
2022/02/13 10:23:07;;;;;;;18.63;9.00;;;5.70;95.40;;;;;;5084566;28;20217;-81
2022/02/13 10:25:35;;;;;;;16.93;8.03;;;5.80;95.30;;;;;;5039959;28;20688;-78
2022/02/13 10:28:10;;;;;;;21.00;8.77;;;5.90;95.00;;;;;;5082869;28;20629;-79
2022/02/13 10:30:40;;;;;;;17.93;7.90;;;5.90;94.60;;;;;;5045415;28;20233;-80
2022/02/13 10:33:21;;;;;;;22.63;9.30;;;6.10;94.90;;;;;;5053819;28;20582;-80
2022/02/13 10:36:08;;;;;;;19.80;8.70;;;6.20;94.40;;;;;;5067399;28;20208;-80
2022/02/13 10:38:38;;;;;;;20.20;8.17;;;6.40;94.10;;;;;;5043655;28;20588;-80
2022/02/13 10:41:14;;;;;;;21.00;9.73;;;6.50;93.80;;;;;;5053669;28;20588;-79
2022/02/13 10:44:06;;;;;;;18.10;8.60;;;6.60;93.30;;;;;;5051031;28;20194;-80
2022/02/13 10:46:35;;;;;;;20.03;9.37;;;6.60;92.80;;;;;;5041969;28;20240;-79
2022/02/13 10:49:04;;;;;;;14.50;8.63;;;6.60;92.10;;;;;;5052241;28;20287;-79
2022/02/13 10:51:32;;;;;;;17.23;7.87;;;6.60;91.90;;;;;;5053624;28;20253;-79
2022/02/13 10:54:03;;;;;;;18.93;8.63;;;6.60;92.60;;;;;;5051926;28;20241;-80
2022/02/13 10:56:32;;;;;;;17.27;8.00;;;6.80;92.50;;;;;;5048383;28;20225;-79
2022/02/13 10:58:59;;;;;;;17.70;8.00;;;6.90;91.60;;;;;;5052041;28;20765;-78
2022/02/13 11:01:28;;;;;;;14.27;7.33;;;7.10;91.50;;;;;;5053827;28;20197;-78
2022/02/13 11:03:57;;;;;;;16.30;7.53;;;7.10;91.30;;;;;;5052581;28;20189;-79
2022/02/13 11:06:28;;;;;;;13.20;7.00;;;7.20;90.80;;;;;;5049349;28;20210;-78
2022/02/13 11:08:58;;;;;;;12.13;6.60;;;7.20;90.90;;;;;;5044683;28;20195;-79
2022/02/13 11:11:27;;;;;;;16.67;7.67;;;7.30;91.10;;;;;;5051149;28;20214;-78
2022/02/13 11:13:56;;;;;;;14.03;7.13;;;7.40;90.90;;;;;;5047740;28;20191;-78
2022/02/13 11:16:31;;;;;;;19.50;8.10;;;7.50;90.70;;;;;;5051645;28;20254;-78
2022/02/13 11:19:01;;;;;;;13.10;6.30;;;7.60;90.00;;;;;;5050965;28;20210;-79
2022/02/13 11:21:31;;;;;;;15.57;6.87;;;7.60;90.10;;;;;;5083645;28;20212;-78
2022/02/13 11:24:00;;;;;;;16.73;6.33;;;7.50;89.80;;;;;;5052386;28;21476;-78
2022/02/13 11:26:42;;;;;;;12.40;6.40;;;7.60;89.50;;;;;;5049029;28;20668;-79
2022/02/13 11:29:11;;;;;;;19.13;7.23;;;7.60;89.30;;;;;;5052286;28;20685;-78
2022/02/13 11:31:42;;;;;;;16.87;7.50;;;7.70;88.20;;;;;;5049231;28;20243;-78
2022/02/13 11:34:13;;;;;;;14.50;6.80;;;7.70;86.80;;;;;;5052137;28;20197;-78
2022/02/13 11:36:43;;;;;;;14.80;7.13;;;7.70;87.00;;;;;;5051411;28;20806;-78
2022/02/13 11:39:10;;;;;;;13.37;6.70;;;8.60;86.60;;;;;;5050753;28;20246;-78
2022/02/13 11:42:10;;;;;;;14.67;7.10;;;7.80;86.50;;;;;;5058006;28;20208;-78
2022/02/13 11:44:49;;;;;;;13.50;6.37;;;7.80;84.90;;;;;;5049914;28;20276;-78
2022/02/13 11:47:38;;;;;;;15.43;6.77;;;7.90;85.30;;;;;;5048742;28;20215;-78
2022/02/13 11:50:21;;;;;;;12.33;5.63;;;7.80;83.80;;;;;;5049698;28;20223;-77
2022/02/13 11:52:59;;;;;;;9.97;5.53;;;7.80;84.80;;;;;;5050612;28;20229;-78
2022/02/13 11:55:28;;;;;;;9.83;5.20;;;7.90;84.60;;;;;;5084403;28;20219;-77
2022/02/13 11:57:59;;;;;;;10.07;5.23;;;7.90;85.20;;;;;;5049781;28;20189;-78
2022/02/13 12:00:39;;;;;;;12.17;6.20;;;7.90;84.20;;;;;;5050492;28;20285;-77
2022/02/13 12:03:17;;;;;;;8.93;4.73;;;7.90;83.20;;;;;;5050529;28;20771;-79
2022/02/13 12:05:51;;;;;;;14.53;5.53;;;7.90;84.00;;;;;;5048748;28;20307;-79
2022/02/13 12:08:23;;;;;;;10.10;5.40;;;7.90;83.90;;;;;;5075954;28;20728;-79
2022/02/13 12:10:50;;;;;;;10.63;5.10;;;8.00;84.30;;;;;;5050194;28;20244;-80
2022/02/13 12:13:21;;;;;;;13.70;5.43;;;8.00;83.90;;;;;;5047358;28;20223;-79
2022/02/13 12:15:53;;;;;;;8.73;4.20;;;7.90;83.70;;;;;;5050003;28;20626;-80
2022/02/13 12:18:20;;;;;;;8.93;4.27;;;7.90;83.80;;;;;;5079462;28;20689;-82
2022/02/13 12:20:49;;;;;;;5.77;3.77;;;7.90;83.70;;;;;;5043723;28;20200;-80
2022/02/13 12:23:19;;;;;;;7.50;4.23;;;7.90;83.50;;;;;;5050091;28;20216;-79
2022/02/13 12:25:47;;;;;;;11.43;4.77;;;7.90;82.10;;;;;;5049836;28;20665;-78
2022/02/13 12:28:17;;;;;;;8.17;4.50;;;7.90;82.10;;;;;;5048870;28;20264;-82
2022/02/13 12:30:50;;;;;;;3.87;3.20;;;7.80;81.80;;;;;;5051055;28;20225;-81
2022/02/13 12:33:22;;;;;;;10.90;5.87;;;7.80;82.60;;;;;;5049194;28;20289;-78
2022/02/13 12:35:50;;;;;;;10.27;4.70;;;7.80;81.40;;;;;;5075078;28;20204;-79
2022/02/13 12:38:18;;;;;;;10.30;4.93;;;7.80;82.40;;;;;;5047499;28;20203;-78
2022/02/13 12:40:45;;;;;;;9.97;5.23;;;7.90;82.50;;;;;;5049778;28;20197;-79
2022/02/13 12:43:16;;;;;;;7.63;4.30;;;7.80;81.20;;;;;;5048499;28;20691;-79
2022/02/13 12:45:45;;;;;;;9.83;4.77;;;7.90;80.80;;;;;;5050211;28;20206;-78
2022/02/13 12:48:15;;;;;;;7.87;4.80;;;7.90;80.30;;;;;;5047684;28;20265;-78
2022/02/13 12:50:46;;;;;;;8.77;4.20;;;7.90;80.40;;;;;;5049622;28;20205;-78
2022/02/13 12:53:14;;;;;;;8.80;4.83;;;8.00;80.30;;;;;;5050611;28;20202;-79
2022/02/13 12:55:43;;;;;;;7.43;4.00;;;8.00;79.10;;;;;;5047848;28;20202;-78